Terminal Aerodrome Forecast
Issued by NWS

Home | Current Version | Previous Version | Text Only | Print | Product List | Glossary On
Versions: 1 2 3 4 5 6 7 8 9 10 11 12 13 14 15 16 17 18
000
FTUS45 KPSR 180520
TAFSDL
TAF
KSDL 180520Z 1806/1906 VRB03KT P6SM FEW100 FEW200
     FM181900 20004KT P6SM FEW070 SCT250
     FM190200 VRB03KT P6SM SCT250=

USA.gov is the U.S. government's official web portal to all federal, state and local government web resources and services.